Flight Track Log - Related Links

Times and Time Zones

All times are in EDT time to prevent confusion due to time zone crossing. See the SWA3927 flight status page for this flight to view local times or setup timezone preferences in your user account.

Time Position Orientation Groundspeed Altitude Reporting Facility
EDT Latitude Longitude Course Direction KTS MPH feet Rate Location/Type
Fri 10:48:27 AM 36.0769 -115.1861 258° West 195 224 3,400  Level Los Center
Fri 10:49:22 AM 36.0650 -115.2531 204° Southwest 246 283 5,200 2,172 Climbing Los Center
Fri 10:50:23 AM 35.9942 -115.2922 219° Southwest 318 366 7,600 2,529 Climbing Los Center
Fri 10:51:23 AM 35.9258 -115.3594 246° West 312 359 10,300 1,700 Climbing Los Center
Fri 10:52:23 AM 35.8889 -115.4600 272° West 317 365 11,000 350 Climbing Los Center
Fri 10:53:23 AM 35.8917 -115.5803 270° West 317 365 11,000 1,550 Level Los Center
Fri 10:54:23 AM 35.8919 -115.7008 279° West 346 398 14,100 3,050 Climbing Los Center
Fri 10:55:23 AM 35.9069 -115.8186 309° West 355 409 17,100 2,500 Climbing Los Center
Fri 10:56:23 AM 35.9697 -115.9133 312° West 346 398 19,100 2,150 Climbing Los Center
Fri 10:57:23 AM 36.0408 -116.0108 311° West 377 434 21,400 2,100 Climbing Los Center
Fri 10:58:23 AM 36.1119 -116.1111 311° West 387 445 23,300 1,700 Climbing Los Center
Fri 10:59:23 AM 36.1786 -116.2061 311° West 387 445 24,800 1,600 Climbing Los Center
Fri 11:00:23 AM 36.2536 -116.3119 312° West 400 460 26,500 1,550 Climbing Los Center
Fri 11:01:23 AM 36.3306 -116.4178 312° West 405 466 27,900 1,500 Climbing Los Center
Fri 11:02:23 AM 36.4094 -116.5264 309° West 416 479 29,500 1,800 Climbing Los Center
Fri 11:03:23 AM 36.4842 -116.6403 312° West 416 479 31,500 1,300 Climbing Los Center
Fri 11:04:23 AM 36.5608 -116.7469 328° Northwest 416 479 32,100 250 Climbing Los Center
Fri 11:05:23 AM 36.6667 -116.8281 329° Northwest 425 489 32,000 -34 Descending Los Center
Fri 11:07:22 AM 36.8708 -116.9833 328° Northwest 429 494 32,000  Level Oakland Center
Fri 11:08:22 AM 36.9717 -117.0636 323° Northwest 429 494 32,000  Level Oakland Center
Fri 11:09:22 AM 37.0622 -117.1503 284° West 423 487 32,000 850 Level Oakland Center
Fri 11:10:22 AM 37.0894 -117.2867 282° West 387 445 33,700 1,450 Climbing Oakland Center
Fri 11:11:22 AM 37.1125 -117.4236 282° West 392 451 34,900 1,150 Climbing Oakland Center
Fri 11:12:22 AM 37.1378 -117.5711 280° West 397 457 36,000 550 Climbing Oakland Center
Fri 11:13:22 AM 37.1583 -117.7133 282° West 403 464 36,000  Level Oakland Center
Fri 11:14:22 AM 37.1811 -117.8531 282° West 409 471 36,000  Level Oakland Center
Fri 11:15:22 AM 37.2056 -117.9956 281° West 409 471 36,000  Level Oakland Center
Fri 11:16:22 AM 37.2278 -118.1356 281° West 409 471 36,000  Level Oakland Center
Fri 11:17:22 AM 37.2500 -118.2783 280° West 414 476 36,000  Level Oakland Center
Fri 11:18:22 AM 37.2697 -118.4158 279° West 414 476 36,000  Level Oakland Center
Fri 11:19:22 AM 37.2872 -118.5483 282° West 409 471 36,000  Level Oakland Center
Fri 11:20:22 AM 37.3108 -118.6914 282° West 415 478 36,000  Level Oakland Center
Fri 11:21:22 AM 37.3344 -118.8342 279° West 421 484 36,000  Level Oakland Center
Fri 11:22:22 AM 37.3517 -118.9747 281° West 421 484 36,000  Level Oakland Center
Fri 11:23:22 AM 37.3747 -119.1206 281° West 421 484 36,000  Level Oakland Center
Fri 11:24:22 AM 37.3958 -119.2639 281° West 421 484 36,000  Level Oakland Center
Fri 11:25:23 AM 37.4164 -119.4019 279° West 421 484 36,000  Level Oakland Center
Fri 11:26:22 AM 37.4328 -119.5375 279° West 408 470 36,000  Level Oakland Center
Fri 11:27:22 AM 37.4511 -119.6811 282° West 414 476 36,000  Level Oakland Center
Fri 11:28:22 AM 37.4758 -119.8325 281° West 409 471 36,000 -300 Level Oakland Center
Fri 11:29:22 AM 37.4978 -119.9761 278° West 409 471 35,400 -800 Descending Oakland Center
Fri 11:30:22 AM 37.5136 -120.1200 280° West 415 478 34,400 -700 Descending Oakland Center
Fri 11:31:22 AM 37.5333 -120.2558 280° West 415 478 34,000 -1,450 Descending Oakland Center
Fri 11:32:22 AM 37.5528 -120.3972 279° West 409 471 31,500 -2,400 Descending Oakland Center
Fri 11:33:22 AM 37.5700 -120.5333 280° West 409 471 29,200 -2,250 Descending Oakland Center
Fri 11:34:22 AM 37.5894 -120.6694 279° West 404 465 27,000 -2,300 Descending Oakland Center
Fri 11:35:22 AM 37.6064 -120.8108 279° West 410 472 24,600 -2,350 Descending Oakland Center
Fri 11:36:22 AM 37.6231 -120.9472 264° West 405 466 22,300 -2,200 Descending Oakland Center
Fri 11:37:22 AM 37.6125 -121.0758 262° West 385 443 20,200 -2,000 Descending Oakland Center
Fri 11:38:22 AM 37.6000 -121.1911 262° West 375 432 18,300 -2,000 Descending Oakland Center
Fri 11:39:22 AM 37.5872 -121.3064 261° West 361 415 16,200 -2,000 Descending Oakland Center
Fri 11:40:22 AM 37.5722 -121.4217 259° West 350 403 14,300 -1,846 Descending Oakland Center
Fri 11:41:32 AM 37.5500 -121.5667 258° West 318 366 12,200 -1,569 Descending Northern TRACON
Fri 11:42:32 AM 37.5333 -121.6667 258° West 297 342 10,900 -800 Descending Northern TRACON
Fri 11:43:32 AM 37.5167 -121.7667 264° West 270 311 10,600 -1,127 Descending Northern TRACON
Fri 11:45:33 AM 37.5000 -121.9500 284° West 287 330 7,500 -1,269 Descending Northern TRACON
Fri 11:46:27 AM 37.5167 -122.0333 288° West 252 290 6,900 -835 Descending Northern TRACON
Fri 11:47:28 AM 37.5333 -122.1000 288° West 221 254 5,900 -1,091 Descending Northern TRACON
Fri 11:48:28 AM 37.5500 -122.1667 302° West 196 226 4,700 -1,339 Descending Northern TRACON
Fri 11:49:29 AM 37.5833 -122.2333 270° West 186 214 3,200 -1,537 Descending Northern TRACON
Fri 11:50:29 AM 37.5833 -122.2833 288° West 169 194 1,600 -1,381 Descending Northern TRACON
Fri 11:51:35 AM 37.6000 -122.3500 288° West 146 168 300 -1,182 Descending Northern TRACON

Login

Don't have an account? Register now (free) for customized features, flight alerts, and more!